sensor_id;sensor_type;location;lat;lon;timestamp;pressure;altitude;pressure_sealevel;temperature;humidity
10462;BME280;5278;42.656;23.374;2022-12-07T00:00:51;94646.69;;;8.14;93.58
10462;BME280;5278;42.656;23.374;2022-12-07T00:03:19;94636.00;;;8.09;93.86
10462;BME280;5278;42.656;23.374;2022-12-07T00:05:47;94636.47;;;8.04;93.84
10462;BME280;5278;42.656;23.374;2022-12-07T00:08:14;94643.75;;;8.01;94.51
10462;BME280;5278;42.656;23.374;2022-12-07T00:10:41;94646.34;;;8.01;94.69
10462;BME280;5278;42.656;23.374;2022-12-07T00:13:08;94640.84;;;7.96;95.26
10462;BME280;5278;42.656;23.374;2022-12-07T00:15:35;94639.22;;;7.95;95.06
10462;BME280;5278;42.656;23.374;2022-12-07T00:18:02;94632.41;;;7.94;95.81
10462;BME280;5278;42.656;23.374;2022-12-07T00:20:28;94545.63;;;7.33;95.84
10462;BME280;5278;42.656;23.374;2022-12-07T00:22:58;94632.88;;;7.89;96.13
10462;BME280;5278;42.656;23.374;2022-12-07T00:25:25;94626.75;;;7.90;95.75
10462;BME280;5278;42.656;23.374;2022-12-07T00:27:52;94627.50;;;7.74;96.04
10462;BME280;5278;42.656;23.374;2022-12-07T00:30:21;94629.16;;;7.84;95.99
10462;BME280;5278;42.656;23.374;2022-12-07T00:32:47;94625.13;;;7.81;95.98
10462;BME280;5278;42.656;23.374;2022-12-07T00:35:14;94636.56;;;7.78;96.22
10462;BME280;5278;42.656;23.374;2022-12-07T00:37:41;94626.22;;;7.70;96.42
10462;BME280;5278;42.656;23.374;2022-12-07T00:40:12;94631.56;;;7.77;96.98
10462;BME280;5278;42.656;23.374;2022-12-07T00:42:39;94644.81;;;7.82;96.84
10462;BME280;5278;42.656;23.374;2022-12-07T00:45:07;94643.38;;;7.88;97.12
10462;BME280;5278;42.656;23.374;2022-12-07T00:47:34;94632.72;;;7.91;96.26
10462;BME280;5278;42.656;23.374;2022-12-07T00:50:02;94618.50;;;7.95;96.68
10462;BME280;5278;42.656;23.374;2022-12-07T00:52:29;94621.09;;;7.95;96.05
10462;BME280;5278;42.656;23.374;2022-12-07T00:54:56;94618.50;;;7.95;96.20
10462;BME280;5278;42.656;23.374;2022-12-07T00:57:26;94622.09;;;8.02;95.60
10462;BME280;5278;42.656;23.374;2022-12-07T00:59:53;94624.34;;;8.05;95.37
10462;BME280;5278;42.656;23.374;2022-12-07T01:02:23;94614.34;;;8.02;95.69
10462;BME280;5278;42.656;23.374;2022-12-07T01:04:49;94621.91;;;8.03;96.08
10462;BME280;5278;42.656;23.374;2022-12-07T01:07:16;94625.03;;;8.07;95.99
10462;BME280;5278;42.656;23.374;2022-12-07T01:09:43;94624.34;;;8.05;96.31
10462;BME280;5278;42.656;23.374;2022-12-07T01:12:10;94620.47;;;8.09;96.23
10462;BME280;5278;42.656;23.374;2022-12-07T01:14:38;94613.53;;;8.09;95.79
10462;BME280;5278;42.656;23.374;2022-12-07T01:17:05;94609.97;;;8.10;95.40
10462;BME280;5278;42.656;23.374;2022-12-07T01:19:32;94616.94;;;8.10;95.40
10462;BME280;5278;42.656;23.374;2022-12-07T01:21:59;94610.59;;;8.12;95.59
10462;BME280;5278;42.656;23.374;2022-12-07T01:24:26;94623.25;;;8.15;95.59
10462;BME280;5278;42.656;23.374;2022-12-07T01:26:53;94609.50;;;8.15;95.31
10462;BME280;5278;42.656;23.374;2022-12-07T01:29:20;94608.69;;;8.14;95.34
10462;BME280;5278;42.656;23.374;2022-12-07T01:31:50;94606.56;;;8.18;94.97
10462;BME280;5278;42.656;23.374;2022-12-07T01:34:17;94596.84;;;8.12;95.36
10462;BME280;5278;42.656;23.374;2022-12-07T01:36:45;94601.72;;;8.15;95.41
10462;BME280;5278;42.656;23.374;2022-12-07T01:39:12;94606.91;;;8.15;95.23
10462;BME280;5278;42.656;23.374;2022-12-07T01:41:40;94604.31;;;8.07;95.50
10462;BME280;5278;42.656;23.374;2022-12-07T01:44:22;94601.56;;;8.00;95.74
10462;BME280;5278;42.656;23.374;2022-12-07T01:46:52;94561.44;;;7.72;95.64
10462;BME280;5278;42.656;23.374;2022-12-07T01:49:27;94609.94;;;8.02;95.50
10462;BME280;5278;42.656;23.374;2022-12-07T01:52:00;94600.75;;;8.00;95.75
10462;BME280;5278;42.656;23.374;2022-12-07T01:54:31;94600.59;;;8.01;96.15
10462;BME280;5278;42.656;23.374;2022-12-07T01:56:59;94595.91;;;8.05;95.93
10462;BME280;5278;42.656;23.374;2022-12-07T01:59:26;94597.81;;;8.03;96.10
10462;BME280;5278;42.656;23.374;2022-12-07T02:01:57;94589.59;;;8.07;96.01
10462;BME280;5278;42.656;23.374;2022-12-07T02:04:24;94585.06;;;8.01;96.67
10462;BME280;5278;42.656;23.374;2022-12-07T02:06:52;94581.66;;;8.01;96.63
10462;BME280;5278;42.656;23.374;2022-12-07T02:09:20;94583.78;;;8.05;96.42
10462;BME280;5278;42.656;23.374;2022-12-07T02:11:48;94582.97;;;8.05;96.42
10462;BME280;5278;42.656;23.374;2022-12-07T02:14:16;94587.63;;;7.93;96.59
10462;BME280;5278;42.656;23.374;2022-12-07T02:16:54;94579.38;;;7.98;96.49
10462;BME280;5278;42.656;23.374;2022-12-07T02:19:50;94587.16;;;7.98;96.50
10462;BME280;5278;42.656;23.374;2022-12-07T02:22:36;94580.53;;;7.95;96.93
10462;BME280;5278;42.656;23.374;2022-12-07T02:25:21;94588.09;;;7.89;97.06
10462;BME280;5278;42.656;23.374;2022-12-07T02:28:00;94583.09;;;7.87;96.88
10462;BME280;5278;42.656;23.374;2022-12-07T02:30:36;94579.72;;;7.87;97.15
10462;BME280;5278;42.656;23.374;2022-12-07T02:33:11;94574.69;;;7.85;96.83
10462;BME280;5278;42.656;23.374;2022-12-07T02:35:43;94569.66;;;7.84;97.45
10462;BME280;5278;42.656;23.374;2022-12-07T02:38:14;94560.94;;;7.85;97.16
10462;BME280;5278;42.656;23.374;2022-12-07T02:40:46;94567.91;;;7.84;97.28
10462;BME280;5278;42.656;23.374;2022-12-07T02:43:17;94565.47;;;7.83;97.41
10462;BME280;5278;42.656;23.374;2022-12-07T02:45:50;94573.41;;;7.89;97.47
10462;BME280;5278;42.656;23.374;2022-12-07T02:48:19;94546.53;;;7.74;97.22
10462;BME280;5278;42.656;23.374;2022-12-07T02:50:48;94570.47;;;7.92;97.73
10462;BME280;5278;42.656;23.374;2022-12-07T02:53:31;94585.50;;;7.81;97.63
10462;BME280;5278;42.656;23.374;2022-12-07T02:56:04;94582.25;;;7.78;97.80
10462;BME280;5278;42.656;23.374;2022-12-07T02:58:42;94578.72;;;7.79;98.00
10462;BME280;5278;42.656;23.374;2022-12-07T03:01:24;94576.47;;;7.76;97.36
10462;BME280;5278;42.656;23.374;2022-12-07T03:04:02;94563.53;;;7.76;97.43
10462;BME280;5278;42.656;23.374;2022-12-07T03:06:36;94556.69;;;7.67;98.06
10462;BME280;5278;42.656;23.374;2022-12-07T03:09:12;94555.59;;;7.62;97.86
10462;BME280;5278;42.656;23.374;2022-12-07T03:11:46;94548.28;;;7.57;98.46
10462;BME280;5278;42.656;23.374;2022-12-07T03:14:17;94550.91;;;7.65;98.20
10462;BME280;5278;42.656;23.374;2022-12-07T03:16:50;94546.19;;;7.61;98.19
10462;BME280;5278;42.656;23.374;2022-12-07T03:19:22;94547.50;;;7.57;98.46
10462;BME280;5278;42.656;23.374;2022-12-07T03:21:54;94549.59;;;7.61;98.35
10462;BME280;5278;42.656;23.374;2022-12-07T03:24:26;94547.31;;;7.58;98.46
10462;BME280;5278;42.656;23.374;2022-12-07T03:26:59;94485.50;;;7.15;98.70
10462;BME280;5278;42.656;23.374;2022-12-07T03:29:32;94547.16;;;7.60;98.73
10462;BME280;5278;42.656;23.374;2022-12-07T03:32:06;94535.66;;;7.46;98.52
10462;BME280;5278;42.656;23.374;2022-12-07T03:34:39;94546.97;;;7.53;98.54
10462;BME280;5278;42.656;23.374;2022-12-07T03:37:11;94551.84;;;7.56;98.71
10462;BME280;5278;42.656;23.374;2022-12-07T03:39:41;94436.03;;;6.85;99.01
10462;BME280;5278;42.656;23.374;2022-12-07T03:42:12;94521.41;;;7.34;98.44
10462;BME280;5278;42.656;23.374;2022-12-07T03:44:40;94556.34;;;7.54;98.50
10462;BME280;5278;42.656;23.374;2022-12-07T03:47:13;94550.84;;;7.49;98.39
10462;BME280;5278;42.656;23.374;2022-12-07T03:49:43;94555.34;;;7.39;98.43
10462;BME280;5278;42.656;23.374;2022-12-07T03:52:18;94548.06;;;7.43;98.21
10462;BME280;5278;42.656;23.374;2022-12-07T03:54:53;94549.34;;;7.39;98.38
10462;BME280;5278;42.656;23.374;2022-12-07T03:57:24;94546.94;;;7.37;98.82
10462;BME280;5278;42.656;23.374;2022-12-07T03:59:54;94556.63;;;7.35;98.63
10462;BME280;5278;42.656;23.374;2022-12-07T04:02:25;94542.75;;;7.36;98.81
10462;BME280;5278;42.656;23.374;2022-12-07T04:04:52;94542.75;;;7.36;98.77
10462;BME280;5278;42.656;23.374;2022-12-07T04:07:20;94535.28;;;7.33;98.93
10462;BME280;5278;42.656;23.374;2022-12-07T04:09:47;94544.81;;;7.32;98.85
10462;BME280;5278;42.656;23.374;2022-12-07T04:12:15;94538.88;;;7.32;99.21
10462;BME280;5278;42.656;23.374;2022-12-07T04:14:42;94540.47;;;7.33;99.48
10462;BME280;5278;42.656;23.374;2022-12-07T04:17:09;94538.38;;;7.37;99.10
10462;BME280;5278;42.656;23.374;2022-12-07T04:19:37;94540.97;;;7.37;99.55
10462;BME280;5278;42.656;23.374;2022-12-07T04:22:05;94529.81;;;7.36;99.41
10462;BME280;5278;42.656;23.374;2022-12-07T04:24:32;94533.53;;;7.33;99.94
10462;BME280;5278;42.656;23.374;2022-12-07T04:26:59;94536.63;;;7.37;99.55
10462;BME280;5278;42.656;23.374;2022-12-07T04:29:26;94540.19;;;7.44;99.18
10462;BME280;5278;42.656;23.374;2022-12-07T04:31:53;94547.59;;;7.47;99.32
10462;BME280;5278;42.656;23.374;2022-12-07T04:34:20;94510.88;;;7.27;98.66
10462;BME280;5278;42.656;23.374;2022-12-07T04:36:48;94538.41;;;7.45;99.04
10462;BME280;5278;42.656;23.374;2022-12-07T04:39:20;94529.50;;;7.39;97.85
10462;BME280;5278;42.656;23.374;2022-12-07T04:41:48;94552.13;;;7.37;98.37
10462;BME280;5278;42.656;23.374;2022-12-07T04:44:16;94551.31;;;7.37;98.04
10462;BME280;5278;42.656;23.374;2022-12-07T04:46:44;94552.75;;;7.31;98.41
10462;BME280;5278;42.656;23.374;2022-12-07T04:49:11;94553.03;;;7.28;98.79
10462;BME280;5278;42.656;23.374;2022-12-07T04:51:38;94518.06;;;7.00;98.76
10462;BME280;5278;42.656;23.374;2022-12-07T04:54:07;94559.00;;;7.28;98.65
10462;BME280;5278;42.656;23.374;2022-12-07T04:56:35;94555.31;;;7.31;98.48
10462;BME280;5278;42.656;23.374;2022-12-07T04:59:03;94445.16;;;6.64;98.57
10462;BME280;5278;42.656;23.374;2022-12-07T05:01:31;94546.41;;;7.25;98.42
10462;BME280;5278;42.656;23.374;2022-12-07T05:03:59;94555.28;;;7.23;98.73
10462;BME280;5278;42.656;23.374;2022-12-07T05:06:27;94549.28;;;7.22;98.56
10462;BME280;5278;42.656;23.374;2022-12-07T05:08:54;94550.91;;;7.23;98.39
10462;BME280;5278;42.656;23.374;2022-12-07T05:11:23;94562.38;;;7.21;98.01
10462;BME280;5278;42.656;23.374;2022-12-07T05:14:06;94550.41;;;7.12;98.40
10462;BME280;5278;42.656;23.374;2022-12-07T05:16:33;94554.91;;;7.10;98.72
10462;BME280;5278;42.656;23.374;2022-12-07T05:19:00;94551.66;;;7.08;98.79
10462;BME280;5278;42.656;23.374;2022-12-07T05:21:27;94552.66;;;7.07;98.78
10462;BME280;5278;42.656;23.374;2022-12-07T05:23:54;94550.34;;;7.04;98.42
10462;BME280;5278;42.656;23.374;2022-12-07T05:26:23;94550.69;;;7.01;98.44
10462;BME280;5278;42.656;23.374;2022-12-07T05:28:51;94554.53;;;6.97;98.46
10462;BME280;5278;42.656;23.374;2022-12-07T05:31:18;94550.97;;;6.98;98.82
10462;BME280;5278;42.656;23.374;2022-12-07T05:33:47;94546.94;;;6.95;99.35
10462;BME280;5278;42.656;23.374;2022-12-07T05:36:16;94525.38;;;6.78;99.87
10462;BME280;5278;42.656;23.374;2022-12-07T05:38:43;94559.53;;;6.98;99.79
10462;BME280;5278;42.656;23.374;2022-12-07T05:41:13;94552.44;;;7.00;99.98
10462;BME280;5278;42.656;23.374;2022-12-07T05:43:56;94545.38;;;7.02;100.00
10462;BME280;5278;42.656;23.374;2022-12-07T05:46:23;94535.78;;;6.95;100.00
10462;BME280;5278;42.656;23.374;2022-12-07T05:48:50;94546.66;;;7.06;100.00
10462;BME280;5278;42.656;23.374;2022-12-07T05:51:17;94550.69;;;7.09;99.67
10462;BME280;5278;42.656;23.374;2022-12-07T05:53:45;94541.84;;;7.11;100.00
10462;BME280;5278;42.656;23.374;2022-12-07T05:56:12;94547.84;;;7.20;100.00
10462;BME280;5278;42.656;23.374;2022-12-07T05:58:39;94539.97;;;7.29;100.00
10462;BME280;5278;42.656;23.374;2022-12-07T06:01:33;94544.53;;;7.35;100.00
10462;BME280;5278;42.656;23.374;2022-12-07T06:04:01;94546.78;;;7.39;100.00
10462;BME280;5278;42.656;23.374;2022-12-07T06:06:29;94530.50;;;7.46;100.00
10462;BME280;5278;42.656;23.374;2022-12-07T06:08:57;94542.00;;;7.60;99.50
10462;BME280;5278;42.656;23.374;2022-12-07T06:11:24;94542.19;;;7.66;99.33
10462;BME280;5278;42.656;23.374;2022-12-07T06:14:08;94540.22;;;7.68;98.85
10462;BME280;5278;42.656;23.374;2022-12-07T06:16:37;94542.84;;;7.76;98.46
10462;BME280;5278;42.656;23.374;2022-12-07T06:19:05;94539.44;;;7.84;98.37
10462;BME280;5278;42.656;23.374;2022-12-07T06:21:31;94533.47;;;7.75;98.07
10462;BME280;5278;42.656;23.374;2022-12-07T06:23:59;94546.91;;;7.95;97.63
10462;BME280;5278;42.656;23.374;2022-12-07T06:26:27;94549.19;;;8.06;96.75
10462;BME280;5278;42.656;23.374;2022-12-07T06:28:55;94551.09;;;8.12;96.58
10462;BME280;5278;42.656;23.374;2022-12-07T06:31:22;94543.03;;;8.23;96.83
10462;BME280;5278;42.656;23.374;2022-12-07T06:33:50;94545.16;;;8.36;97.22
10462;BME280;5278;42.656;23.374;2022-12-07T06:36:18;94548.88;;;8.42;95.89
10462;BME280;5278;42.656;23.374;2022-12-07T06:38:45;94555.34;;;8.46;94.99
10462;BME280;5278;42.656;23.374;2022-12-07T06:41:13;94557.13;;;8.45;95.00
10462;BME280;5278;42.656;23.374;2022-12-07T06:43:39;94546.13;;;8.51;94.33
10462;BME280;5278;42.656;23.374;2022-12-07T06:46:07;94551.75;;;8.63;93.87
10462;BME280;5278;42.656;23.374;2022-12-07T06:48:34;94559.03;;;8.68;93.07
10462;BME280;5278;42.656;23.374;2022-12-07T06:51:03;94562.44;;;8.76;92.81
10462;BME280;5278;42.656;23.374;2022-12-07T06:53:30;94561.13;;;8.80;91.81
10462;BME280;5278;42.656;23.374;2022-12-07T06:55:57;94549.78;;;8.73;91.39
10462;BME280;5278;42.656;23.374;2022-12-07T06:58:24;94555.94;;;8.72;92.25
10462;BME280;5278;42.656;23.374;2022-12-07T07:00:51;94560.00;;;8.75;92.06
10462;BME280;5278;42.656;23.374;2022-12-07T07:03:18;94560.97;;;8.74;92.03
10462;BME280;5278;42.656;23.374;2022-12-07T07:05:46;94565.53;;;8.72;92.53
10462;BME280;5278;42.656;23.374;2022-12-07T07:08:15;94556.13;;;8.71;92.48
10462;BME280;5278;42.656;23.374;2022-12-07T07:10:43;94560.78;;;8.83;91.74
10462;BME280;5278;42.656;23.374;2022-12-07T07:13:10;94553.97;;;8.90;91.30
10462;BME280;5278;42.656;23.374;2022-12-07T07:15:38;94517.09;;;8.72;90.65
10462;BME280;5278;42.656;23.374;2022-12-07T07:18:05;94561.53;;;9.08;89.90
10462;BME280;5278;42.656;23.374;2022-12-07T07:20:34;94569.59;;;9.13;90.13
10462;BME280;5278;42.656;23.374;2022-12-07T07:23:01;94569.28;;;9.16;89.92
10462;BME280;5278;42.656;23.374;2022-12-07T07:25:30;94565.19;;;9.30;89.94
10462;BME280;5278;42.656;23.374;2022-12-07T07:27:57;94561.44;;;9.32;89.96
10462;BME280;5278;42.656;23.374;2022-12-07T07:30:24;94558.22;;;9.30;90.37
10462;BME280;5278;42.656;23.374;2022-12-07T07:32:56;94557.72;;;9.27;90.24
10462;BME280;5278;42.656;23.374;2022-12-07T07:35:23;94564.44;;;9.52;90.05
10462;BME280;5278;42.656;23.374;2022-12-07T07:37:50;94559.53;;;9.88;88.61
10462;BME280;5278;42.656;23.374;2022-12-07T07:40:17;94568.31;;;10.10;87.43
10462;BME280;5278;42.656;23.374;2022-12-07T07:42:47;94570.31;;;10.30;85.83
10462;BME280;5278;42.656;23.374;2022-12-07T07:45:14;94566.88;;;10.53;84.39
10462;BME280;5278;42.656;23.374;2022-12-07T07:47:40;94559.94;;;10.83;82.83
10462;BME280;5278;42.656;23.374;2022-12-07T07:50:10;94571.19;;;11.27;80.95
10462;BME280;5278;42.656;23.374;2022-12-07T07:52:37;94557.00;;;11.74;79.00
10462;BME280;5278;42.656;23.374;2022-12-07T07:55:06;94554.81;;;12.13;76.54
10462;BME280;5278;42.656;23.374;2022-12-07T07:57:34;94553.13;;;12.48;74.29
10462;BME280;5278;42.656;23.374;2022-12-07T08:00:03;94524.84;;;12.73;71.48
10462;BME280;5278;42.656;23.374;2022-12-07T08:02:31;94554.88;;;13.65;68.77
10462;BME280;5278;42.656;23.374;2022-12-07T08:04:58;94550.84;;;14.30;64.79
10462;BME280;5278;42.656;23.374;2022-12-07T08:07:26;94544.06;;;14.55;62.49
10462;BME280;5278;42.656;23.374;2022-12-07T08:09:54;94557.34;;;14.54;62.16
10462;BME280;5278;42.656;23.374;2022-12-07T08:12:21;94555.06;;;14.31;62.63
10462;BME280;5278;42.656;23.374;2022-12-07T08:14:48;94550.81;;;14.17;63.61
10462;BME280;5278;42.656;23.374;2022-12-07T08:17:17;94552.22;;;14.06;64.29
10462;BME280;5278;42.656;23.374;2022-12-07T08:19:44;94548.75;;;13.93;64.26
10462;BME280;5278;42.656;23.374;2022-12-07T08:22:10;94551.91;;;13.68;64.07
10462;BME280;5278;42.656;23.374;2022-12-07T08:24:38;94548.81;;;13.52;64.31
10462;BME280;5278;42.656;23.374;2022-12-07T08:27:05;94543.34;;;14.01;93.96
10462;BME280;5278;42.656;23.374;2022-12-07T08:29:32;94541.31;;;15.61;94.48
10462;BME280;5278;42.656;23.374;2022-12-07T08:31:59;94535.03;;;16.75;83.91
10462;BME280;5278;42.656;23.374;2022-12-07T08:34:28;94530.47;;;17.50;76.20
10462;BME280;5278;42.656;23.374;2022-12-07T08:36:56;94528.56;;;18.24;67.48
10462;BME280;5278;42.656;23.374;2022-12-07T08:39:23;94533.25;;;18.63;62.27
10462;BME280;5278;42.656;23.374;2022-12-07T08:41:50;94531.03;;;19.02;58.15
10462;BME280;5278;42.656;23.374;2022-12-07T08:44:17;94523.56;;;19.33;54.82
10462;BME280;5278;42.656;23.374;2022-12-07T08:46:46;94474.88;;;19.48;53.83
10462;BME280;5278;42.656;23.374;2022-12-07T08:49:16;94519.38;;;19.84;52.63
10462;BME280;5278;42.656;23.374;2022-12-07T08:51:46;94517.63;;;20.01;50.30
10462;BME280;5278;42.656;23.374;2022-12-07T08:54:16;94519.13;;;19.97;49.34
10462;BME280;5278;42.656;23.374;2022-12-07T08:56:45;94512.34;;;20.01;46.13
10462;BME280;5278;42.656;23.374;2022-12-07T08:59:15;94512.47;;;19.95;44.77
10462;BME280;5278;42.656;23.374;2022-12-07T09:01:44;94510.91;;;19.82;45.40
10462;BME280;5278;42.656;23.374;2022-12-07T09:04:10;94503.63;;;19.72;45.46
10462;BME280;5278;42.656;23.374;2022-12-07T09:06:38;94507.06;;;19.61;44.94
10462;BME280;5278;42.656;23.374;2022-12-07T09:09:06;94508.38;;;19.47;45.13
10462;BME280;5278;42.656;23.374;2022-12-07T09:11:34;94504.44;;;19.50;44.90
10462;BME280;5278;42.656;23.374;2022-12-07T09:14:01;94506.75;;;19.46;44.94
10462;BME280;5278;42.656;23.374;2022-12-07T09:16:28;94503.97;;;19.41;44.55
10462;BME280;5278;42.656;23.374;2022-12-07T09:18:55;94506.97;;;19.33;44.92
10462;BME280;5278;42.656;23.374;2022-12-07T09:21:21;94490.25;;;19.27;44.76
10462;BME280;5278;42.656;23.374;2022-12-07T09:23:48;94487.75;;;19.21;44.89
10462;BME280;5278;42.656;23.374;2022-12-07T09:26:16;94483.38;;;19.15;44.87
10462;BME280;5278;42.656;23.374;2022-12-07T09:28:43;94484.56;;;19.07;46.78
10462;BME280;5278;42.656;23.374;2022-12-07T09:31:10;94485.00;;;19.27;49.85
10462;BME280;5278;42.656;23.374;2022-12-07T09:33:37;94489.72;;;19.02;45.26
10462;BME280;5278;42.656;23.374;2022-12-07T09:36:04;94492.53;;;18.13;45.94
10462;BME280;5278;42.656;23.374;2022-12-07T09:38:33;94481.66;;;17.25;48.27
10462;BME280;5278;42.656;23.374;2022-12-07T09:41:04;94476.38;;;16.39;50.59
10462;BME280;5278;42.656;23.374;2022-12-07T09:43:35;94477.78;;;15.78;53.02
10462;BME280;5278;42.656;23.374;2022-12-07T09:46:05;94484.84;;;15.14;54.69
10462;BME280;5278;42.656;23.374;2022-12-07T09:48:34;94479.31;;;14.57;57.25
10462;BME280;5278;42.656;23.374;2022-12-07T09:51:13;94479.69;;;14.08;60.24
10462;BME280;5278;42.656;23.374;2022-12-07T09:53:42;94476.00;;;13.83;61.69
10462;BME280;5278;42.656;23.374;2022-12-07T09:56:11;94465.09;;;13.53;62.78
10462;BME280;5278;42.656;23.374;2022-12-07T09:58:42;94473.84;;;13.32;63.54
10462;BME280;5278;42.656;23.374;2022-12-07T10:01:13;94469.69;;;13.04;65.22
10462;BME280;5278;42.656;23.374;2022-12-07T10:03:44;94464.94;;;12.79;66.78
10462;BME280;5278;42.656;23.374;2022-12-07T10:06:12;94462.44;;;12.65;68.05
10462;BME280;5278;42.656;23.374;2022-12-07T10:08:39;94451.56;;;12.55;68.80
10462;BME280;5278;42.656;23.374;2022-12-07T10:11:09;94454.97;;;12.55;69.05
10462;BME280;5278;42.656;23.374;2022-12-07T10:13:38;94470.16;;;12.51;69.48
10462;BME280;5278;42.656;23.374;2022-12-07T10:16:38;94442.13;;;12.54;69.71
10462;BME280;5278;42.656;23.374;2022-12-07T10:19:23;94441.50;;;12.51;69.32
10462;BME280;5278;42.656;23.374;2022-12-07T10:22:15;94440.66;;;12.44;70.46
10462;BME280;5278;42.656;23.374;2022-12-07T10:24:45;94446.34;;;12.55;70.44
10462;BME280;5278;42.656;23.374;2022-12-07T10:27:21;94441.59;;;12.71;70.03
10462;BME280;5278;42.656;23.374;2022-12-07T10:29:49;94449.97;;;12.94;69.18
10462;BME280;5278;42.656;23.374;2022-12-07T10:32:31;94431.91;;;13.34;67.71
10462;BME280;5278;42.656;23.374;2022-12-07T10:35:19;94424.59;;;13.97;65.11
10462;BME280;5278;42.656;23.374;2022-12-07T10:37:46;94398.66;;;14.61;61.77
10462;BME280;5278;42.656;23.374;2022-12-07T10:40:28;94413.25;;;14.95;58.40
10462;BME280;5278;42.656;23.374;2022-12-07T10:43:04;94415.72;;;14.83;58.19
10462;BME280;5278;42.656;23.374;2022-12-07T10:45:31;94418.56;;;14.62;59.25
10462;BME280;5278;42.656;23.374;2022-12-07T10:48:05;94410.13;;;14.40;60.33
10462;BME280;5278;42.656;23.374;2022-12-07T10:50:56;94395.25;;;14.08;61.15
10462;BME280;5278;42.656;23.374;2022-12-07T10:53:51;94293.59;;;13.21;62.46
10462;BME280;5278;42.656;23.374;2022-12-07T10:59:39;94387.63;;;14.00;62.51
10462;BME280;5278;42.656;23.374;2022-12-07T11:02:32;94371.94;;;13.87;62.85
10462;BME280;5278;42.656;23.374;2022-12-07T11:05:14;94379.59;;;14.08;62.77
10462;BME280;5278;42.656;23.374;2022-12-07T11:07:53;94367.34;;;14.02;62.34
10462;BME280;5278;42.656;23.374;2022-12-07T11:10:26;94375.16;;;13.75;63.08
10462;BME280;5278;42.656;23.374;2022-12-07T11:13:10;94380.16;;;13.57;63.34
10462;BME280;5278;42.656;23.374;2022-12-07T11:15:50;94375.75;;;13.45;63.97
10462;BME280;5278;42.656;23.374;2022-12-07T11:18:25;94379.72;;;13.41;64.59
10462;BME280;5278;42.656;23.374;2022-12-07T11:20:59;94377.72;;;13.43;64.49
10462;BME280;5278;42.656;23.374;2022-12-07T11:23:43;94378.56;;;13.50;64.30
10462;BME280;5278;42.656;23.374;2022-12-07T11:26:16;94364.69;;;13.49;63.88
10462;BME280;5278;42.656;23.374;2022-12-07T11:28:59;94347.38;;;13.22;64.80
10462;BME280;5278;42.656;23.374;2022-12-07T11:31:35;94361.25;;;13.29;65.08
10462;BME280;5278;42.656;23.374;2022-12-07T11:34:10;94352.22;;;13.25;65.63
10462;BME280;5278;42.656;23.374;2022-12-07T11:36:44;94347.41;;;13.28;66.10
10462;BME280;5278;42.656;23.374;2022-12-07T11:39:23;94328.31;;;13.28;65.85
10462;BME280;5278;42.656;23.374;2022-12-07T11:41:55;94345.16;;;13.25;66.04
10462;BME280;5278;42.656;23.374;2022-12-07T11:44:30;94295.84;;;12.76;66.56
10462;BME280;5278;42.656;23.374;2022-12-07T11:47:01;94349.31;;;13.07;66.64
10462;BME280;5278;42.656;23.374;2022-12-07T11:49:40;94345.88;;;13.00;67.04
10462;BME280;5278;42.656;23.374;2022-12-07T11:52:18;94301.25;;;12.68;67.68
10462;BME280;5278;42.656;23.374;2022-12-07T11:54:50;94332.84;;;13.00;67.63
10462;BME280;5278;42.656;23.374;2022-12-07T11:57:24;94331.81;;;13.01;67.68
10462;BME280;5278;42.656;23.374;2022-12-07T12:00:00;94332.03;;;13.06;67.60
10462;BME280;5278;42.656;23.374;2022-12-07T12:02:34;94321.69;;;13.19;67.52
10462;BME280;5278;42.656;23.374;2022-12-07T12:05:12;94323.53;;;13.58;66.38
10462;BME280;5278;42.656;23.374;2022-12-07T12:07:43;94321.75;;;13.85;63.85
10462;BME280;5278;42.656;23.374;2022-12-07T12:10:18;94312.69;;;13.87;63.69
10462;BME280;5278;42.656;23.374;2022-12-07T12:12:59;94309.69;;;13.84;63.25
10462;BME280;5278;42.656;23.374;2022-12-07T12:15:40;94306.28;;;13.76;64.27
10462;BME280;5278;42.656;23.374;2022-12-07T12:18:32;94303.28;;;13.79;64.14
10462;BME280;5278;42.656;23.374;2022-12-07T12:21:08;94292.00;;;13.66;64.29
10462;BME280;5278;42.656;23.374;2022-12-07T12:23:41;94268.75;;;13.45;64.76
10462;BME280;5278;42.656;23.374;2022-12-07T12:26:16;94291.19;;;13.85;64.77
10462;BME280;5278;42.656;23.374;2022-12-07T12:28:51;94293.78;;;14.05;63.49
10462;BME280;5278;42.656;23.374;2022-12-07T12:31:34;94298.19;;;14.17;67.82
10462;BME280;5278;42.656;23.374;2022-12-07T12:34:04;94283.69;;;15.55;93.78
10462;BME280;5278;42.656;23.374;2022-12-07T12:36:45;94280.78;;;16.49;70.42
10462;BME280;5278;42.656;23.374;2022-12-07T12:39:15;94276.34;;;16.86;71.83
10462;BME280;5278;42.656;23.374;2022-12-07T12:42:00;94271.97;;;17.10;69.58
10462;BME280;5278;42.656;23.374;2022-12-07T12:45:04;94254.19;;;17.23;62.73
10462;BME280;5278;42.656;23.374;2022-12-07T12:48:06;94261.97;;;16.89;53.17
10462;BME280;5278;42.656;23.374;2022-12-07T12:51:35;94268.47;;;16.13;54.95
10462;BME280;5278;42.656;23.374;2022-12-07T12:54:08;94267.50;;;15.65;56.01
10462;BME280;5278;42.656;23.374;2022-12-07T12:56:43;94267.19;;;15.23;57.32
10462;BME280;5278;42.656;23.374;2022-12-07T12:59:23;94280.63;;;14.95;58.68
10462;BME280;5278;42.656;23.374;2022-12-07T13:01:51;94272.50;;;14.72;59.02
10462;BME280;5278;42.656;23.374;2022-12-07T13:04:30;94275.81;;;14.54;59.71
10462;BME280;5278;42.656;23.374;2022-12-07T13:07:02;94230.31;;;14.04;60.47
10462;BME280;5278;42.656;23.374;2022-12-07T13:09:30;94280.25;;;14.34;61.06
10462;BME280;5278;42.656;23.374;2022-12-07T13:12:03;94279.88;;;14.37;61.34
10462;BME280;5278;42.656;23.374;2022-12-07T13:14:56;94276.44;;;14.37;61.88
10462;BME280;5278;42.656;23.374;2022-12-07T13:18:02;94273.41;;;14.40;61.93
10462;BME280;5278;42.656;23.374;2022-12-07T13:20:47;94272.22;;;14.42;61.81
10462;BME280;5278;42.656;23.374;2022-12-07T13:23:18;94283.28;;;14.31;62.14
10462;BME280;5278;42.656;23.374;2022-12-07T13:25:51;94279.88;;;14.24;62.85
10462;BME280;5278;42.656;23.374;2022-12-07T13:28:25;94287.94;;;14.16;63.24
10462;BME280;5278;42.656;23.374;2022-12-07T13:31:02;94288.78;;;14.03;63.71